Time;durP1;ratioP1;P1;durP2;ratioP2;P2;SDS_P1;SDS_P2;PMS_P1;PMS_P2;Temp;Humidity;BMP_temperature;BMP_pressure;BME280_temperature;BME280_humidity;BME280_pressure;Samples;Min_cycle;Max_cycle;Signal;HPM_P1;HPM_P2
2022/11/12 00:00:40;;;;;;;7.05;3.85;;;6.50;99.90;;;;;;5048562;28;20674;-44
2022/11/12 00:03:06;;;;;;;7.75;4.20;;;6.50;99.90;;;;;;5038692;28;20174;-46
2022/11/12 00:05:32;;;;;;;9.32;4.28;;;6.50;99.90;;;;;;5047756;28;20037;-40
2022/11/12 00:07:58;;;;;;;6.22;3.35;;;6.50;99.90;;;;;;5053968;28;20037;-46
2022/11/12 00:10:24;;;;;;;8.38;4.68;;;6.50;99.90;;;;;;5045865;28;20510;-43
2022/11/12 00:12:50;;;;;;;7.22;4.28;;;6.50;99.90;;;;;;5041241;28;20044;-44
2022/11/12 00:15:16;;;;;;;8.65;4.82;;;6.40;99.90;;;;;;5049384;28;20043;-45
2022/11/12 00:17:42;;;;;;;6.68;4.10;;;6.40;99.90;;;;;;5052943;28;20048;-46
2022/11/12 00:20:08;;;;;;;7.43;3.70;;;6.40;99.90;;;;;;5049598;28;20057;-44
2022/11/12 00:22:34;;;;;;;8.35;4.65;;;6.40;99.90;;;;;;5047079;28;20041;-45
2022/11/12 00:24:59;;;;;;;8.20;4.00;;;6.40;99.90;;;;;;5046686;28;20079;-46
2022/11/12 00:27:25;;;;;;;7.65;4.55;;;6.40;99.90;;;;;;5045852;28;20490;-43
2022/11/12 00:29:51;;;;;;;11.70;4.60;;;6.40;99.90;;;;;;5045596;28;20103;-44
2022/11/12 00:32:16;;;;;;;10.00;5.53;;;6.40;99.90;;;;;;5053352;28;20048;-47
2022/11/12 00:34:42;;;;;;;10.30;5.57;;;6.40;99.90;;;;;;5046926;28;20140;-43
2022/11/12 00:37:08;;;;;;;9.23;5.13;;;6.40;99.90;;;;;;5052049;28;20037;-45
2022/11/12 00:39:33;;;;;;;11.02;5.57;;;6.40;99.90;;;;;;5050322;28;20041;-42
2022/11/12 00:42:00;;;;;;;8.13;5.32;;;6.40;99.90;;;;;;5044043;28;20512;-46
2022/11/12 00:44:28;;;;;;;10.57;5.88;;;6.30;99.90;;;;;;5049662;28;20161;-47
2022/11/12 00:46:54;;;;;;;13.25;5.43;;;6.40;99.90;;;;;;5050959;28;20045;-46
2022/11/12 00:49:20;;;;;;;9.40;5.13;;;6.40;99.90;;;;;;5049930;28;20041;-43
2022/11/12 00:51:45;;;;;;;10.55;6.05;;;6.40;99.90;;;;;;5043501;28;20130;-44
2022/11/12 00:54:11;;;;;;;10.98;5.35;;;6.40;99.90;;;;;;5045487;28;20525;-41
2022/11/12 00:56:36;;;;;;;10.48;5.35;;;6.40;99.90;;;;;;5048293;28;20029;-42
2022/11/12 00:59:02;;;;;;;10.38;5.68;;;6.40;99.90;;;;;;5049142;28;20040;-43
2022/11/12 01:01:28;;;;;;;8.82;5.18;;;6.40;99.90;;;;;;5049518;28;20258;-49
2022/11/12 01:03:57;;;;;;;11.70;5.22;;;6.30;99.90;;;;;;5046130;28;20033;-44
2022/11/12 01:06:23;;;;;;;8.90;5.13;;;6.40;99.90;;;;;;5050504;28;20496;-46
2022/11/12 01:08:50;;;;;;;8.35;4.32;;;6.30;99.90;;;;;;5045702;28;20037;-42
2022/11/12 01:11:19;;;;;;;9.60;4.43;;;6.30;99.90;;;;;;5045309;28;20076;-43
2022/11/12 01:13:46;;;;;;;8.27;5.05;;;6.30;99.90;;;;;;5045058;28;20050;-50
2022/11/12 01:16:18;;;;;;;11.70;5.28;;;6.30;99.90;;;;;;5051242;28;20040;-43
2022/11/12 01:18:45;;;;;;;9.70;4.97;;;6.30;99.90;;;;;;5050497;28;20037;-44
2022/11/12 01:21:12;;;;;;;7.85;4.13;;;6.30;99.90;;;;;;5048858;28;20616;-41
2022/11/12 01:23:40;;;;;;;8.55;4.82;;;6.30;99.90;;;;;;5041221;28;20060;-43
2022/11/12 01:26:09;;;;;;;9.13;5.55;;;6.30;99.90;;;;;;5048218;28;20049;-44
2022/11/12 01:28:35;;;;;;;9.35;5.60;;;6.30;99.90;;;;;;5048794;28;20055;-42
2022/11/12 01:31:15;;;;;;;11.85;5.78;;;6.20;99.90;;;;;;5041394;28;20068;-45
2022/11/12 01:33:42;;;;;;;9.20;5.32;;;6.20;99.90;;;;;;5047619;28;20123;-43
2022/11/12 01:36:09;;;;;;;9.10;5.63;;;6.20;99.90;;;;;;5052315;28;20524;-41
2022/11/12 01:38:36;;;;;;;15.07;7.05;;;6.30;99.90;;;;;;5047544;28;20490;-40
2022/11/12 01:41:02;;;;;;;9.95;5.85;;;6.20;99.90;;;;;;5045923;28;20484;-42
2022/11/12 01:43:28;;;;;;;9.05;5.10;;;6.30;99.90;;;;;;5045790;28;20068;-48
2022/11/12 01:45:55;;;;;;;13.52;6.50;;;6.20;99.90;;;;;;5049477;28;20082;-45
2022/11/12 01:48:41;;;;;;;11.82;6.13;;;6.20;99.90;;;;;;5054677;28;20048;-42
2022/11/12 01:51:08;;;;;;;11.52;6.13;;;6.20;99.90;;;;;;5050964;28;20087;-46
2022/11/12 01:53:39;;;;;;;10.05;5.57;;;6.10;99.90;;;;;;5046003;28;20398;-43
2022/11/12 01:56:05;;;;;;;10.63;6.25;;;6.10;99.90;;;;;;5050432;28;20131;-40
2022/11/12 01:58:33;;;;;;;12.25;6.60;;;6.10;99.90;;;;;;5043869;28;20041;-42
2022/11/12 02:01:01;;;;;;;11.75;5.95;;;6.10;99.90;;;;;;5041978;28;20510;-42
2022/11/12 02:03:26;;;;;;;14.05;6.90;;;6.10;99.90;;;;;;5045123;28;20045;-42
2022/11/12 02:06:04;;;;;;;8.02;5.40;;;6.20;99.90;;;;;;5048954;28;20043;-41
2022/11/12 02:08:31;;;;;;;10.40;6.20;;;6.20;99.90;;;;;;5049337;28;20053;-39
2022/11/12 02:10:57;;;;;;;13.23;6.45;;;6.20;99.90;;;;;;5044725;28;20041;-43
2022/11/12 02:16:09;;;;;;;12.70;7.50;;;6.20;99.90;;;;;;5043520;28;20041;-44
2022/11/12 02:18:35;;;;;;;12.75;7.07;;;6.20;99.90;;;;;;5045513;28;20087;-46
2022/11/12 02:21:07;;;;;;;10.38;4.90;;;6.20;99.90;;;;;;5051303;28;20041;-45
2022/11/12 02:23:33;;;;;;;10.98;6.60;;;6.20;99.90;;;;;;5044274;28;20490;-45
2022/11/12 02:25:59;;;;;;;10.85;6.53;;;6.10;99.90;;;;;;5050956;28;20044;-43
2022/11/12 02:28:26;;;;;;;12.55;7.30;;;6.10;99.90;;;;;;5050345;28;20057;-45
2022/11/12 02:30:52;;;;;;;12.63;7.22;;;6.10;99.90;;;;;;5044938;28;20055;-42
2022/11/12 02:33:18;;;;;;;11.27;6.53;;;6.20;99.90;;;;;;5044459;28;20034;-47
2022/11/12 02:35:43;;;;;;;13.18;6.90;;;6.10;99.90;;;;;;5047291;28;20036;-45
2022/11/12 02:38:09;;;;;;;12.80;7.38;;;6.20;99.90;;;;;;5053005;28;20438;-42
2022/11/12 02:40:35;;;;;;;12.40;8.27;;;6.10;99.90;;;;;;5046287;28;20055;-45
2022/11/12 02:43:01;;;;;;;10.57;5.57;;;6.10;99.90;;;;;;5048357;28;20122;-42
2022/11/12 02:45:27;;;;;;;13.18;6.90;;;6.10;99.90;;;;;;5043713;28;20472;-44
2022/11/12 02:47:53;;;;;;;12.50;6.70;;;6.10;99.90;;;;;;5047689;28;20084;-45
2022/11/12 02:50:18;;;;;;;9.45;4.72;;;6.10;99.90;;;;;;5050996;28;20041;-42
2022/11/12 02:52:44;;;;;;;8.98;5.72;;;6.10;99.90;;;;;;5044695;28;20040;-44
2022/11/12 02:55:11;;;;;;;8.88;5.50;;;6.00;99.90;;;;;;5049922;28;20044;-42
2022/11/12 02:57:38;;;;;;;13.48;5.80;;;6.00;99.90;;;;;;5046153;28;20082;-43
2022/11/12 03:00:07;;;;;;;10.23;5.50;;;6.00;99.90;;;;;;5049418;28;20095;-46
2022/11/12 03:02:32;;;;;;;10.75;5.15;;;6.00;99.90;;;;;;5044653;28;20071;-42
2022/11/12 03:04:58;;;;;;;12.73;6.50;;;5.90;99.90;;;;;;5044318;28;20490;-43
2022/11/12 03:07:24;;;;;;;9.70;5.80;;;5.90;99.90;;;;;;5046185;28;20045;-46
2022/11/12 03:09:49;;;;;;;9.93;5.65;;;5.80;99.90;;;;;;5043637;28;20044;-43
2022/11/12 03:12:15;;;;;;;10.48;6.10;;;5.80;99.90;;;;;;5045421;28;20482;-47
2022/11/12 03:14:41;;;;;;;12.40;6.65;;;5.80;99.90;;;;;;5045145;28;20115;-45
2022/11/12 03:17:06;;;;;;;10.38;5.85;;;5.80;99.90;;;;;;5048405;28;20039;-47
2022/11/12 03:19:32;;;;;;;10.55;5.63;;;5.80;99.90;;;;;;5051721;28;20086;-41
2022/11/12 03:21:58;;;;;;;10.43;6.68;;;5.80;99.90;;;;;;5050292;28;20496;-45
2022/11/12 03:24:23;;;;;;;9.93;6.55;;;5.80;99.90;;;;;;5044211;28;20056;-43
2022/11/12 03:26:49;;;;;;;10.35;5.72;;;5.80;99.90;;;;;;5051877;28;20469;-44
2022/11/12 03:29:15;;;;;;;11.02;7.00;;;5.70;99.90;;;;;;5050260;28;20140;-44
2022/11/12 03:31:40;;;;;;;9.00;6.28;;;5.70;99.90;;;;;;5056879;28;20040;-47
2022/11/12 03:34:06;;;;;;;12.23;6.90;;;5.70;99.90;;;;;;5055888;28;20072;-46
2022/11/12 03:36:32;;;;;;;11.57;5.93;;;5.70;99.90;;;;;;5050769;28;20490;-44
2022/11/12 03:38:57;;;;;;;10.25;6.35;;;5.70;99.90;;;;;;5062515;28;20044;-41
2022/11/12 03:41:23;;;;;;;13.00;7.13;;;5.70;99.90;;;;;;5052617;28;20040;-41
2022/11/12 03:43:49;;;;;;;9.32;5.55;;;5.70;99.90;;;;;;5046810;28;20406;-43
2022/11/12 03:46:14;;;;;;;11.93;6.50;;;5.70;99.90;;;;;;5046070;28;20490;-44
2022/11/12 03:48:40;;;;;;;10.88;5.68;;;5.70;99.90;;;;;;5048267;28;20083;-42
2022/11/12 03:51:05;;;;;;;13.05;6.55;;;5.60;99.90;;;;;;5053150;28;20036;-43
2022/11/12 03:53:31;;;;;;;9.15;5.47;;;5.60;99.90;;;;;;5046333;28;20045;-40
2022/11/12 03:55:57;;;;;;;9.57;5.93;;;5.60;99.90;;;;;;5054912;28;20040;-48
2022/11/12 03:58:22;;;;;;;9.43;6.22;;;5.60;99.90;;;;;;5045959;28;20033;-42
2022/11/12 04:00:48;;;;;;;11.25;6.45;;;5.60;99.90;;;;;;5048972;28;20115;-42
2022/11/12 04:03:14;;;;;;;11.70;6.95;;;5.60;99.90;;;;;;5022234;28;20044;-44
2022/11/12 04:08:36;;;;;;;11.75;6.50;;;5.60;99.90;;;;;;5045862;28;20064;-47
2022/11/12 04:11:11;;;;;;;10.20;5.30;;;5.60;99.90;;;;;;5053695;28;20059;-40
2022/11/12 04:13:37;;;;;;;8.43;5.22;;;5.60;99.90;;;;;;5043255;28;20136;-46
2022/11/12 04:21:54;;;;;;;13.00;7.82;;;5.50;99.90;;;;;;5043904;28;20040;-44
2022/11/12 04:27:22;;;;;;;14.65;6.75;;;5.50;99.90;;;;;;5041653;28;20433;-42
2022/11/12 04:32:36;;;;;;;10.70;6.28;;;5.40;99.90;;;;;;5039826;28;20037;-41
2022/11/12 04:35:02;;;;;;;9.20;5.80;;;5.40;99.90;;;;;;5065793;28;20111;-45
2022/11/12 04:37:43;;;;;;;9.65;5.20;;;5.40;99.90;;;;;;5052223;28;20037;-40
2022/11/12 04:45:46;;;;;;;10.68;6.30;;;5.30;99.90;;;;;;5049359;28;20571;-47
2022/11/12 04:48:12;;;;;;;12.93;7.38;;;5.30;99.90;;;;;;5043737;28;20076;-49
2022/11/12 04:50:39;;;;;;;11.20;6.15;;;5.30;99.90;;;;;;5048908;28;20044;-43
2022/11/12 04:53:05;;;;;;;8.68;5.28;;;5.30;99.90;;;;;;5045928;28;20036;-42
2022/11/12 04:55:31;;;;;;;13.45;5.53;;;5.30;99.90;;;;;;5054131;28;20036;-40
2022/11/12 04:57:57;;;;;;;10.00;6.03;;;5.20;99.90;;;;;;5048710;28;20041;-41
2022/11/12 05:00:23;;;;;;;11.13;6.55;;;5.20;99.90;;;;;;5049050;28;20410;-44
2022/11/12 05:02:50;;;;;;;11.77;6.70;;;5.20;99.90;;;;;;5047225;28;20167;-47
2022/11/12 05:05:16;;;;;;;8.50;5.10;;;5.20;99.90;;;;;;5047301;28;20033;-42
2022/11/12 05:07:41;;;;;;;8.75;5.78;;;5.20;99.90;;;;;;5045543;28;20039;-43
2022/11/12 05:10:08;;;;;;;8.43;5.68;;;5.30;99.90;;;;;;5050518;28;20049;-48
2022/11/12 05:12:33;;;;;;;12.45;6.07;;;5.30;99.90;;;;;;5051788;28;20410;-42
2022/11/12 05:14:59;;;;;;;24.80;7.88;;;5.40;99.90;;;;;;5048342;28;20033;-46
2022/11/12 05:17:25;;;;;;;9.50;5.38;;;5.40;99.90;;;;;;5051322;28;20489;-45
2022/11/12 05:19:50;;;;;;;10.30;5.35;;;5.40;99.90;;;;;;5048799;28;20084;-44
2022/11/12 05:22:16;;;;;;;14.10;5.50;;;5.40;99.90;;;;;;5048737;28;20049;-43
2022/11/12 05:24:43;;;;;;;13.75;5.88;;;5.40;99.90;;;;;;5042725;28;20418;-43
2022/11/12 05:27:14;;;;;;;35.50;7.43;;;5.40;99.90;;;;;;5054259;28;20067;-40
2022/11/12 05:29:40;;;;;;;20.88;5.53;;;5.40;99.90;;;;;;5047456;28;20091;-43
2022/11/12 05:32:07;;;;;;;19.92;5.10;;;5.30;99.90;;;;;;5042990;28;20033;-44
2022/11/12 05:34:33;;;;;;;25.27;6.32;;;5.30;99.90;;;;;;5041618;28;20049;-44
2022/11/12 05:37:01;;;;;;;17.80;6.38;;;5.30;99.90;;;;;;5043804;28;20535;-44
2022/11/12 05:39:26;;;;;;;20.23;5.60;;;5.20;99.90;;;;;;5046979;28;20041;-43
2022/11/12 05:41:52;;;;;;;12.43;5.63;;;5.30;99.90;;;;;;5044443;28;20036;-38
2022/11/12 05:44:18;;;;;;;12.73;5.78;;;5.20;99.90;;;;;;5050493;28;20029;-43
2022/11/12 05:46:44;;;;;;;25.60;6.82;;;5.20;99.90;;;;;;5043758;28;20072;-45
2022/11/12 05:49:10;;;;;;;42.47;10.05;;;5.20;99.90;;;;;;5045865;28;20116;-42
2022/11/12 05:51:36;;;;;;;74.43;9.43;;;5.20;99.90;;;;;;5049628;28;20364;-45
2022/11/12 05:54:02;;;;;;;74.35;8.50;;;5.20;99.90;;;;;;5046361;28;20512;-45
2022/11/12 05:56:28;;;;;;;29.33;8.15;;;5.20;99.90;;;;;;5046607;28;20064;-42
2022/11/12 05:58:54;;;;;;;91.50;10.88;;;5.10;99.90;;;;;;5048029;28;20087;-42
2022/11/12 06:01:20;;;;;;;54.75;7.70;;;5.20;99.90;;;;;;5049541;28;20478;-43
2022/11/12 06:03:45;;;;;;;135.75;14.40;;;5.20;99.90;;;;;;5042914;28;20507;-41
2022/11/12 06:06:11;;;;;;;112.43;12.20;;;5.10;99.90;;;;;;5048513;28;20040;-44
2022/11/12 06:08:37;;;;;;;57.58;6.80;;;5.10;99.90;;;;;;5049909;28;20040;-48
2022/11/12 06:11:02;;;;;;;131.07;13.93;;;5.20;99.90;;;;;;5048371;28;20041;-43
2022/11/12 06:13:28;;;;;;;71.13;9.52;;;5.20;99.90;;;;;;5043149;28;21441;-43
2022/11/12 06:15:55;;;;;;;68.18;8.57;;;5.20;99.90;;;;;;5046586;28;20033;-42
2022/11/12 06:18:21;;;;;;;55.17;9.18;;;5.20;99.90;;;;;;5050548;28;20043;-44
2022/11/12 06:21:18;;;;;;;10.65;4.03;;;5.20;99.90;;;;;;5047342;28;20106;-43
2022/11/12 06:23:32;;;;;;;32.28;5.90;;;5.10;99.90;;;;;;5043356;28;20379;-40
2022/11/12 06:25:58;;;;;;;59.22;8.20;;;5.10;99.90;;;;;;5048218;28;20025;-45
2022/11/12 06:28:24;;;;;;;33.63;5.38;;;5.10;99.90;;;;;;5044705;28;20080;-43
2022/11/12 06:30:49;;;;;;;13.55;4.85;;;5.10;99.90;;;;;;5047128;28;20048;-41
2022/11/12 06:33:15;;;;;;;34.00;6.20;;;5.00;99.90;;;;;;5044188;28;20111;-44
2022/11/12 06:35:41;;;;;;;19.02;5.50;;;5.00;99.90;;;;;;5043635;28;20709;-41
2022/11/12 06:38:06;;;;;;;14.75;3.67;;;5.00;99.90;;;;;;5047818;28;20367;-46
2022/11/12 06:40:32;;;;;;;13.07;4.05;;;4.90;99.90;;;;;;5044276;28;20033;-46
2022/11/12 06:42:59;;;;;;;11.32;4.18;;;4.90;99.90;;;;;;5047265;28;20048;-38
2022/11/12 06:45:25;;;;;;;12.40;4.47;;;4.80;99.90;;;;;;5046486;28;20044;-43
2022/11/12 06:47:50;;;;;;;16.00;5.75;;;4.80;99.90;;;;;;5044634;28;20047;-44
2022/11/12 06:50:16;;;;;;;8.75;4.57;;;4.80;99.90;;;;;;5047242;28;20036;-45
2022/11/12 06:52:41;;;;;;;13.73;4.90;;;4.80;99.90;;;;;;5039753;28;20036;-45
2022/11/12 06:55:08;;;;;;;13.70;4.57;;;4.80;99.90;;;;;;5052602;28;20480;-43
2022/11/12 06:57:34;;;;;;;16.80;4.20;;;4.80;99.90;;;;;;5047375;28;20107;-45
2022/11/12 06:59:59;;;;;;;13.18;4.68;;;4.70;99.90;;;;;;5045686;28;20559;-41
2022/11/12 07:02:25;;;;;;;19.08;4.60;;;4.70;99.90;;;;;;5045030;28;20037;-43
2022/11/12 07:04:51;;;;;;;20.13;6.07;;;4.70;99.90;;;;;;5046862;28;20454;-45
2022/11/12 07:07:17;;;;;;;48.15;4.90;;;4.80;99.90;;;;;;5044084;28;20098;-47
2022/11/12 07:09:42;;;;;;;48.28;5.97;;;4.70;99.90;;;;;;5041067;28;20041;-46
2022/11/12 07:12:08;;;;;;;46.13;8.05;;;4.80;99.90;;;;;;5040055;28;20035;-41
2022/11/12 07:14:34;;;;;;;50.47;6.65;;;4.80;99.90;;;;;;5045051;28;20414;-44
2022/11/12 07:16:59;;;;;;;45.78;7.47;;;4.80;99.90;;;;;;5046807;28;20044;-41
2022/11/12 07:19:25;;;;;;;18.05;5.03;;;4.80;99.90;;;;;;5048164;28;20474;-44
2022/11/12 07:21:51;;;;;;;32.97;5.13;;;4.80;99.90;;;;;;5049547;28;20513;-43
2022/11/12 07:24:17;;;;;;;27.17;6.43;;;4.80;99.90;;;;;;5039657;28;20045;-47
2022/11/12 07:26:42;;;;;;;74.22;8.40;;;4.90;99.90;;;;;;5046901;28;20033;-44
2022/11/12 07:29:08;;;;;;;25.42;4.80;;;4.90;99.90;;;;;;5047890;28;20056;-43
2022/11/12 07:31:34;;;;;;;11.15;5.22;;;4.90;99.90;;;;;;5044259;28;20045;-41
2022/11/12 07:33:59;;;;;;;14.98;4.47;;;4.90;99.90;;;;;;5044950;28;20523;-43
2022/11/12 07:36:25;;;;;;;17.23;4.70;;;4.90;99.90;;;;;;5049228;28;20040;-45
2022/11/12 07:38:53;;;;;;;32.47;5.93;;;4.90;99.90;;;;;;5045685;28;20041;-44
2022/11/12 07:41:23;;;;;;;20.90;5.88;;;4.90;99.90;;;;;;5044496;28;20042;-41
2022/11/12 07:43:51;;;;;;;12.38;4.95;;;4.90;99.90;;;;;;5046456;28;20037;-45
2022/11/12 07:46:23;;;;;;;11.27;4.57;;;4.90;99.90;;;;;;5052005;28;20056;-42
2022/11/12 07:48:48;;;;;;;7.07;4.70;;;4.90;99.90;;;;;;5049460;28;20044;-46
2022/11/12 07:51:20;;;;;;;11.80;5.07;;;4.90;99.90;;;;;;5048836;28;20143;-41
2022/11/12 07:53:47;;;;;;;10.37;5.10;;;4.90;99.90;;;;;;5040971;28;20045;-42
2022/11/12 07:56:18;;;;;;;6.28;4.20;;;4.90;99.90;;;;;;5046078;28;20326;-44
2022/11/12 07:58:44;;;;;;;7.03;3.90;;;4.90;99.90;;;;;;5042133;28;20033;-42
2022/11/12 08:01:21;;;;;;;6.80;4.10;;;4.90;99.90;;;;;;5039520;28;20041;-45
2022/11/12 08:03:47;;;;;;;6.07;4.10;;;5.00;99.90;;;;;;5040613;28;20075;-47
2022/11/12 08:06:13;;;;;;;6.07;3.70;;;5.00;99.90;;;;;;5039865;28;20482;-47
2022/11/12 08:08:38;;;;;;;9.68;4.50;;;5.00;99.90;;;;;;5040587;28;20040;-44
2022/11/12 08:11:04;;;;;;;8.75;5.03;;;5.00;99.90;;;;;;5048187;28;20033;-46
2022/11/12 08:13:30;;;;;;;8.48;4.53;;;5.00;99.90;;;;;;5039682;28;20406;-42
2022/11/12 08:15:59;;;;;;;9.20;4.97;;;5.00;99.90;;;;;;5042997;28;20449;-43
2022/11/12 08:18:25;;;;;;;12.02;5.82;;;5.10;99.90;;;;;;5045134;28;20124;-39
2022/11/12 08:20:51;;;;;;;9.38;5.28;;;5.10;99.90;;;;;;5047402;28;20095;-45
2022/11/12 08:23:17;;;;;;;14.95;5.45;;;5.10;99.90;;;;;;5045420;28;20472;-43
2022/11/12 08:25:42;;;;;;;7.53;5.13;;;5.10;99.90;;;;;;5044381;28;20043;-45
2022/11/12 08:28:08;;;;;;;9.73;5.20;;;5.10;99.90;;;;;;5042443;28;20049;-45
2022/11/12 08:30:34;;;;;;;7.05;4.47;;;5.20;99.90;;;;;;5042710;28;20033;-44
2022/11/12 08:33:04;;;;;;;8.43;4.95;;;5.30;99.90;;;;;;5041457;28;20659;-44
2022/11/12 08:35:31;;;;;;;7.80;4.78;;;5.30;99.90;;;;;;5045071;28;20037;-46
2022/11/12 08:37:58;;;;;;;9.32;5.40;;;5.40;99.90;;;;;;5045376;28;20076;-44
2022/11/12 08:40:26;;;;;;;8.27;5.28;;;5.40;99.90;;;;;;5041028;28;20484;-42
2022/11/12 08:43:03;;;;;;;9.00;4.97;;;5.50;99.90;;;;;;5047935;28;20401;-46
2022/11/12 08:45:31;;;;;;;6.80;4.80;;;5.60;99.90;;;;;;5042459;28;20559;-43
2022/11/12 08:48:07;;;;;;;6.93;4.30;;;5.70;99.90;;;;;;5039883;28;20032;-41
2022/11/12 08:50:34;;;;;;;12.35;5.05;;;5.80;99.90;;;;;;5047401;28;20041;-49
2022/11/12 08:53:02;;;;;;;8.18;4.85;;;5.80;99.90;;;;;;5047963;28;20040;-42
2022/11/12 08:55:32;;;;;;;11.35;6.63;;;5.90;99.90;;;;;;5043167;28;20032;-42
2022/11/12 08:58:00;;;;;;;11.65;6.85;;;6.00;99.90;;;;;;5040931;28;20505;-43
2022/11/12 09:00:53;;;;;;;9.18;6.18;;;6.10;99.90;;;;;;5048016;28;20494;-42
2022/11/12 09:03:21;;;;;;;11.53;6.57;;;6.10;99.90;;;;;;5042512;28;20145;-45
2022/11/12 09:05:47;;;;;;;9.30;5.07;;;6.20;99.90;;;;;;5047079;28;20130;-43
2022/11/12 09:08:16;;;;;;;10.90;6.90;;;6.30;99.90;;;;;;5045285;28;20035;-44
2022/11/12 09:10:42;;;;;;;10.52;6.68;;;6.30;99.90;;;;;;5039871;28;20033;-47
2022/11/12 09:13:08;;;;;;;13.38;6.82;;;6.40;99.90;;;;;;5035602;28;20037;-46
2022/11/12 09:15:34;;;;;;;10.32;6.72;;;6.50;99.90;;;;;;5039484;28;20029;-42
2022/11/12 09:18:02;;;;;;;9.77;6.68;;;6.60;99.90;;;;;;5048319;28;20040;-40
2022/11/12 09:20:29;;;;;;;14.10;9.15;;;6.70;99.90;;;;;;5043924;28;20045;-42
2022/11/12 09:23:02;;;;;;;13.38;7.80;;;6.80;99.90;;;;;;5046331;28;20533;-45
2022/11/12 09:25:28;;;;;;;12.10;8.18;;;6.90;99.90;;;;;;5043336;28;20048;-46
2022/11/12 09:27:54;;;;;;;10.35;6.72;;;7.00;99.90;;;;;;5042638;28;20049;-43
2022/11/12 09:30:20;;;;;;;11.57;6.85;;;7.10;99.90;;;;;;5040951;28;20226;-43
2022/11/12 09:32:46;;;;;;;12.15;7.22;;;7.10;99.90;;;;;;5036890;28;20034;-44
2022/11/12 09:35:11;;;;;;;13.95;6.78;;;7.20;99.90;;;;;;5041910;28;20055;-45
2022/11/12 09:37:37;;;;;;;11.55;7.25;;;7.30;99.90;;;;;;5045996;28;20041;-44
2022/11/12 09:40:05;;;;;;;13.00;7.45;;;7.40;99.90;;;;;;5042859;28;20124;-46
2022/11/12 09:42:34;;;;;;;10.88;6.97;;;7.40;99.90;;;;;;5041099;28;20037;-42
2022/11/12 09:45:11;;;;;;;13.77;8.25;;;7.50;99.90;;;;;;5041550;28;20498;-41
2022/11/12 09:47:44;;;;;;;11.50;6.75;;;7.60;99.90;;;;;;5036174;28;20554;-40
2022/11/12 09:50:25;;;;;;;12.85;6.43;;;7.70;99.90;;;;;;5031762;28;20688;-41
2022/11/12 09:53:00;;;;;;;10.70;6.05;;;7.80;99.90;;;;;;5043665;28;20565;-44
2022/11/12 09:55:52;;;;;;;15.75;8.68;;;8.00;99.90;;;;;;5041067;28;20033;-41
2022/11/12 09:58:18;;;;;;;14.38;7.93;;;8.10;99.90;;;;;;5034771;28;20053;-40
2022/11/12 10:00:55;;;;;;;13.02;8.02;;;8.20;99.90;;;;;;5040121;28;20128;-46
2022/11/12 10:03:45;;;;;;;14.52;8.02;;;8.30;99.90;;;;;;5032165;28;20072;-40
2022/11/12 10:06:26;;;;;;;10.95;7.05;;;8.40;99.90;;;;;;5039659;28;20102;-43
2022/11/12 10:09:14;;;;;;;12.70;7.80;;;8.50;99.90;;;;;;5036360;28;20082;-40
2022/11/12 10:18:15;;;;;;;14.43;7.60;;;8.90;99.90;;;;;;5039975;28;20045;-45
2022/11/12 10:21:28;;;;;;;14.18;8.07;;;8.90;99.90;;;;;;5042533;28;20033;-45
2022/11/12 10:23:55;;;;;;;10.35;6.22;;;9.10;99.90;;;;;;5035555;28;20065;-41
2022/11/12 10:26:23;;;;;;;13.55;7.53;;;9.20;99.90;;;;;;5037824;28;20045;-43
2022/11/12 10:29:35;;;;;;;11.18;6.47;;;9.20;99.90;;;;;;5031107;28;20068;-43
2022/11/12 10:32:01;;;;;;;12.80;7.28;;;9.30;99.90;;;;;;5021297;28;20048;-45
2022/11/12 10:34:30;;;;;;;10.30;6.68;;;9.50;99.90;;;;;;5033862;28;20418;-42
2022/11/12 10:37:24;;;;;;;11.23;7.28;;;9.60;99.90;;;;;;5035560;28;20110;-40
2022/11/12 10:39:50;;;;;;;12.48;6.72;;;9.70;99.90;;;;;;5038921;28;20058;-41
2022/11/12 10:42:18;;;;;;;12.05;6.65;;;9.80;99.90;;;;;;5035168;28;20430;-42
2022/11/12 10:44:45;;;;;;;9.55;6.47;;;9.90;99.90;;;;;;5042222;28;20068;-44
2022/11/12 10:47:20;;;;;;;9.45;5.90;;;10.00;99.90;;;;;;5038912;28;20041;-41
2022/11/12 10:50:11;;;;;;;9.60;6.07;;;10.10;99.90;;;;;;5040139;28;20048;-41
2022/11/12 10:52:37;;;;;;;10.85;6.30;;;10.30;99.90;;;;;;5033146;28;20045;-45
2022/11/12 10:55:19;;;;;;;9.98;6.15;;;10.50;99.90;;;;;;5034380;28;20056;-43
2022/11/12 10:57:45;;;;;;;9.15;5.93;;;11.00;99.90;;;;;;5037753;28;20483;-45
2022/11/12 11:00:17;;;;;;;9.88;5.80;;;11.50;99.90;;;;;;5040421;28;20063;-45
2022/11/12 11:02:50;;;;;;;10.05;6.18;;;12.00;99.90;;;;;;5035112;28;20048;-45
2022/11/12 11:05:47;;;;;;;9.98;6.25;;;12.50;99.90;;;;;;5039791;28;20046;-43
2022/11/12 11:08:13;;;;;;;8.23;5.50;;;12.90;99.90;;;;;;5035125;28;20051;-43
2022/11/12 11:10:39;;;;;;;12.48;5.70;;;13.30;99.90;;;;;;5033127;28;20038;-43
2022/11/12 11:13:26;;;;;;;9.52;5.47;;;13.60;99.90;;;;;;5035991;28;20068;-43
2022/11/12 11:16:04;;;;;;;8.48;5.13;;;13.70;99.90;;;;;;5038202;28;20064;-43
2022/11/12 11:18:33;;;;;;;7.57;4.20;;;13.90;99.90;;;;;;5032972;28;20045;-41
2022/11/12 11:21:16;;;;;;;8.82;4.70;;;14.10;99.90;;;;;;5034786;28;20056;-42
2022/11/12 11:23:47;;;;;;;7.63;5.15;;;14.30;99.90;;;;;;5042763;28;20044;-43
2022/11/12 11:26:39;;;;;;;9.05;5.60;;;14.30;99.90;;;;;;5040697;28;20517;-42
2022/11/12 11:29:30;;;;;;;9.40;4.93;;;14.40;99.90;;;;;;5038097;28;20127;-42
2022/11/12 11:32:04;;;;;;;7.65;4.53;;;14.60;99.90;;;;;;5041337;28;20295;-41
2022/11/12 11:35:00;;;;;;;8.50;4.93;;;14.80;99.90;;;;;;5040774;28;20037;-43
2022/11/12 11:37:28;;;;;;;10.38;4.97;;;14.90;99.90;;;;;;5034950;28;20052;-44
2022/11/12 11:40:44;;;;;;;7.72;5.07;;;15.10;99.90;;;;;;5050343;28;20039;-45
2022/11/12 11:43:37;;;;;;;8.35;4.65;;;15.30;99.90;;;;;;5029598;28;20533;-42
2022/11/12 11:46:08;;;;;;;8.20;4.65;;;15.80;99.10;;;;;;5049592;28;20089;-48
2022/11/12 11:48:51;;;;;;;7.47;4.60;;;16.10;99.00;;;;;;5047197;28;20037;-46
2022/11/12 11:51:17;;;;;;;8.18;5.10;;;;;;;;;;5042295;28;20780;-47
2022/11/12 11:54:23;;;;;;;7.53;5.20;;;16.60;97.30;;;;;;5048372;28;20091;-44
2022/11/12 11:56:53;;;;;;;6.88;4.13;;;16.90;95.30;;;;;;5052170;28;20397;-43
2022/11/12 11:59:47;;;;;;;8.10;4.35;;;17.20;95.50;;;;;;5042666;28;20055;-42
2022/11/12 12:02:27;;;;;;;8.15;4.68;;;17.40;94.00;;;;;;5033970;28;20051;-45
2022/11/12 12:05:24;;;;;;;7.32;4.75;;;17.40;94.20;;;;;;5041929;28;20044;-46
2022/11/12 12:08:12;;;;;;;6.35;4.13;;;17.60;93.60;;;;;;5039237;28;20083;-49
2022/11/12 12:10:58;;;;;;;6.95;4.53;;;17.80;91.30;;;;;;5041564;28;20041;-44
2022/11/12 12:13:51;;;;;;;6.95;4.57;;;17.80;91.70;;;;;;5032797;28;20060;-44
2022/11/12 12:16:51;;;;;;;6.97;4.57;;;17.90;89.30;;;;;;5044309;28;20059;-43
2022/11/12 12:19:34;;;;;;;8.77;4.95;;;17.90;88.80;;;;;;5040376;28;20502;-41
2022/11/12 12:22:02;;;;;;;9.23;5.18;;;18.00;90.50;;;;;;5038826;28;20250;-43
2022/11/12 12:24:36;;;;;;;9.48;5.28;;;18.20;92.00;;;;;;5039925;28;20099;-45
2022/11/12 12:27:07;;;;;;;6.53;4.95;;;18.40;91.30;;;;;;5038970;28;20041;-41
2022/11/12 12:29:32;;;;;;;8.13;4.95;;;18.90;90.80;;;;;;5035249;28;20509;-45
2022/11/12 12:32:15;;;;;;;6.00;4.43;;;19.30;89.80;;;;;;5042573;28;20045;-40
2022/11/12 12:35:01;;;;;;;6.30;4.05;;;19.80;84.00;;;;;;5040660;28;20037;-43
2022/11/12 12:37:36;;;;;;;6.32;4.20;;;19.80;82.10;;;;;;5047374;28;20491;-42
2022/11/12 12:40:01;;;;;;;7.20;4.15;;;19.90;80.90;;;;;;5045490;28;20146;-43
2022/11/12 12:42:36;;;;;;;7.38;4.63;;;20.10;83.10;;;;;;5044482;28;20483;-46
2022/11/12 12:45:34;;;;;;;6.60;4.40;;;20.40;81.50;;;;;;5041830;28;20133;-42
2022/11/12 12:48:03;;;;;;;7.50;4.40;;;20.70;76.90;;;;;;5038523;28;20041;-43
2022/11/12 12:50:29;;;;;;;6.85;4.70;;;21.00;80.60;;;;;;5039235;28;20033;-45
2022/11/12 12:53:04;;;;;;;9.93;4.68;;;20.90;77.30;;;;;;5047604;28;20052;-42
2022/11/12 12:55:42;;;;;;;5.18;4.28;;;21.20;76.30;;;;;;5042664;28;20359;-41
2022/11/12 12:58:28;;;;;;;7.32;4.68;;;21.30;76.00;;;;;;5035739;28;20056;-42
2022/11/12 13:00:59;;;;;;;6.35;4.57;;;21.40;70.80;;;;;;5041891;28;20045;-46
2022/11/12 13:03:43;;;;;;;6.05;4.30;;;20.90;73.10;;;;;;5039647;28;20094;-49
2022/11/12 13:06:23;;;;;;;8.95;4.28;;;20.70;71.80;;;;;;5031186;28;20138;-44
2022/11/12 13:09:04;;;;;;;6.22;4.90;;;20.40;73.30;;;;;;5043575;28;20047;-44
2022/11/12 13:14:37;;;;;;;6.85;4.55;;;20.60;73.50;;;;;;5042734;28;20052;-47
2022/11/12 13:17:05;;;;;;;7.90;4.72;;;20.80;74.60;;;;;;5044130;28;20198;-45
2022/11/12 13:19:34;;;;;;;5.90;4.53;;;21.20;75.70;;;;;;5048210;28;20041;-45
2022/11/12 13:22:18;;;;;;;7.65;4.60;;;21.50;73.20;;;;;;5036916;28;20048;-41
2022/11/12 13:25:15;;;;;;;5.82;4.30;;;21.90;67.00;;;;;;5043654;28;20458;-47
2022/11/12 13:27:44;;;;;;;8.15;4.53;;;22.00;67.40;;;;;;5059363;28;20052;-44
2022/11/12 13:30:12;;;;;;;5.40;4.20;;;22.10;68.90;;;;;;5050447;28;20109;-43
2022/11/12 13:32:47;;;;;;;6.05;4.40;;;22.10;69.30;;;;;;5046120;28;20073;-44
2022/11/12 13:35:16;;;;;;;5.60;4.22;;;22.20;67.70;;;;;;5047611;28;20028;-46
2022/11/12 13:38:11;;;;;;;5.38;4.13;;;22.50;66.80;;;;;;5041495;28;20118;-43